< Cyclone 199209 1992 Season Cyclone 199301 >
Cyclone 199210 (JANE)
General InformationTrack Information on Google MapsDetailed Wind InformationList of All Images || ResourceGoogle EarthGE AnimationAtom FeedGeoJSON
Detalied Best Track (Time Zone = UTC)
Year Month Day Hour Lat. Long. Pressure (hPa) Wind (kt) Class Image Chart
1992 4 7 00 -6.5 99.1 1002 25 2 Image --
1992 4 7 06 -6.7 98.9 1002 25 2 Image --
1992 4 7 12 -6.9 98.7 1000 25 2 Image --
1992 4 7 18 -7.2 98.5 998 30 2 Image --
1992 4 8 00 -7.5 98.1 995 35 3 Image --
1992 4 8 06 -8.0 97.9 993 40 3 Image --
1992 4 8 12 -8.6 98.2 990 45 3 Image --
1992 4 8 18 -9.1 98.2 986 50 4 Image --
1992 4 9 00 -9.7 98.3 984 50 4 Image --
1992 4 9 06 -10.2 98.4 982 50 4 Image --
1992 4 9 12 -10.8 98.5 980 55 4 Image --
1992 4 9 18 -11.3 98.7 976 60 4 Image --
1992 4 10 00 -11.8 99.0 970 65 5 Image --
1992 4 10 06 -12.2 99.2 966 70 5 Image --
1992 4 10 12 -12.5 99.3 964 70 5 Image --
1992 4 10 18 -12.8 99.4 962 75 5 Image --
1992 4 11 00 -13.1 99.5 960 75 5 Image --
1992 4 11 06 -13.4 99.6 960 75 5 Image --
1992 4 11 12 -13.8 99.5 960 75 5 Image --
1992 4 11 18 -14.0 99.0 958 80 5 Image --
1992 4 12 00 -14.1 98.5 956 80 5 Image --
1992 4 12 06 -14.2 97.8 954 80 5 Image --
1992 4 12 12 -14.2 96.7 952 80 5 Image --
1992 4 12 18 -14.4 94.9 950 85 5 Image --
1992 4 13 00 -14.6 93.9 948 85 5 Image --
1992 4 13 06 -14.8 92.7 942 90 5 Image --
1992 4 13 12 -15.0 91.5 935 95 5 Image --
1992 4 13 18 -15.0 90.4 930 100 5 Image --
1992 4 14 00 -14.9 89.5 925 100 5 Image --
1992 4 14 06 -14.8 88.4 920 105 5 Image --
1992 4 14 12 -14.7 87.4 915 110 5 Image --
1992 4 14 18 -14.5 86.4 915 110 5 Image --
1992 4 15 00 -14.6 85.4 915 110 5 Image --
1992 4 15 06 -14.8 84.4 915 110 5 Image --
1992 4 15 12 -14.8 83.7 920 110 5 Image --
1992 4 15 18 -14.8 83.2 930 100 5 Image --
1992 4 16 00 -14.9 82.8 955 85 5 Image --
1992 4 16 06 -15.1 82.5 970 65 5 Image --
1992 4 16 12 -15.7 82.2 985 50 4 Image --
1992 4 16 18 -16.3 82.2 990 40 3 Image --
1992 4 17 00 -17.0 82.6 995 35 3 Image --
1992 4 17 06 -17.7 83.1 998 30 2 Image --
< Cyclone 199209 1992 Season Cyclone 199301 >

Help